sensor_id;sensor_type;location;lat;lon;timestamp;P1;durP1;ratioP1;P2;durP2;ratioP2
67597;SDS011;62026;39.230;9.122;2023-03-16T00:01:19;10.73;;;2.53;;
67597;SDS011;62026;39.230;9.122;2023-03-16T00:03:46;14.98;;;2.30;;
67597;SDS011;62026;39.230;9.122;2023-03-16T00:06:12;12.80;;;2.20;;
67597;SDS011;62026;39.230;9.122;2023-03-16T00:08:38;11.30;;;2.47;;
67597;SDS011;62026;39.230;9.122;2023-03-16T00:11:04;13.55;;;1.88;;
67597;SDS011;62026;39.230;9.122;2023-03-16T00:13:30;12.88;;;2.20;;
67597;SDS011;62026;39.230;9.122;2023-03-16T00:16:00;10.40;;;2.08;;
67597;SDS011;62026;39.230;9.122;2023-03-16T00:18:31;8.27;;;1.73;;
67597;SDS011;62026;39.230;9.122;2023-03-16T00:21:05;9.95;;;2.35;;
67597;SDS011;62026;39.230;9.122;2023-03-16T00:23:31;11.63;;;2.40;;
67597;SDS011;62026;39.230;9.122;2023-03-16T00:26:03;11.05;;;1.80;;
67597;SDS011;62026;39.230;9.122;2023-03-16T00:28:33;13.85;;;2.17;;
67597;SDS011;62026;39.230;9.122;2023-03-16T00:31:01;9.93;;;2.33;;
67597;SDS011;62026;39.230;9.122;2023-03-16T00:33:29;7.32;;;1.58;;
67597;SDS011;62026;39.230;9.122;2023-03-16T00:35:59;13.57;;;2.00;;
67597;SDS011;62026;39.230;9.122;2023-03-16T00:38:27;12.15;;;2.60;;
67597;SDS011;62026;39.230;9.122;2023-03-16T00:40:57;15.23;;;2.17;;
67597;SDS011;62026;39.230;9.122;2023-03-16T00:43:23;11.98;;;2.10;;
67597;SDS011;62026;39.230;9.122;2023-03-16T00:45:56;10.38;;;2.28;;
67597;SDS011;62026;39.230;9.122;2023-03-16T00:48:26;12.02;;;1.90;;
67597;SDS011;62026;39.230;9.122;2023-03-16T00:50:52;13.98;;;2.20;;
67597;SDS011;62026;39.230;9.122;2023-03-16T00:53:19;11.52;;;2.55;;
67597;SDS011;62026;39.230;9.122;2023-03-16T00:55:46;9.20;;;1.92;;
67597;SDS011;62026;39.230;9.122;2023-03-16T00:58:12;9.90;;;1.83;;
67597;SDS011;62026;39.230;9.122;2023-03-16T01:00:39;12.90;;;2.08;;
67597;SDS011;62026;39.230;9.122;2023-03-16T01:03:05;13.82;;;1.90;;
67597;SDS011;62026;39.230;9.122;2023-03-16T01:05:31;11.55;;;2.05;;
67597;SDS011;62026;39.230;9.122;2023-03-16T01:07:57;12.82;;;2.08;;
67597;SDS011;62026;39.230;9.122;2023-03-16T01:10:26;10.73;;;2.00;;
67597;SDS011;62026;39.230;9.122;2023-03-16T01:12:52;8.25;;;1.92;;
67597;SDS011;62026;39.230;9.122;2023-03-16T01:15:20;16.33;;;2.53;;
67597;SDS011;62026;39.230;9.122;2023-03-16T01:17:46;11.32;;;1.92;;
67597;SDS011;62026;39.230;9.122;2023-03-16T01:20:13;9.52;;;1.92;;
67597;SDS011;62026;39.230;9.122;2023-03-16T01:22:43;10.25;;;2.03;;
67597;SDS011;62026;39.230;9.122;2023-03-16T01:25:10;16.60;;;2.35;;
67597;SDS011;62026;39.230;9.122;2023-03-16T01:27:39;13.32;;;2.03;;
67597;SDS011;62026;39.230;9.122;2023-03-16T01:30:07;9.38;;;2.55;;
67597;SDS011;62026;39.230;9.122;2023-03-16T01:32:37;8.63;;;1.88;;
67597;SDS011;62026;39.230;9.122;2023-03-16T01:35:05;9.18;;;2.30;;
67597;SDS011;62026;39.230;9.122;2023-03-16T01:37:32;16.58;;;2.58;;
67597;SDS011;62026;39.230;9.122;2023-03-16T01:40:07;10.65;;;2.50;;
67597;SDS011;62026;39.230;9.122;2023-03-16T01:42:45;13.85;;;1.90;;
67597;SDS011;62026;39.230;9.122;2023-03-16T01:48:36;16.30;;;2.30;;
67597;SDS011;62026;39.230;9.122;2023-03-16T01:51:08;10.32;;;2.20;;
67597;SDS011;62026;39.230;9.122;2023-03-16T01:54:45;10.32;;;1.58;;
67597;SDS011;62026;39.230;9.122;2023-03-16T01:57:06;13.30;;;2.22;;
67597;SDS011;62026;39.230;9.122;2023-03-16T01:59:43;11.43;;;1.65;;
67597;SDS011;62026;39.230;9.122;2023-03-16T02:02:39;12.70;;;2.00;;
67597;SDS011;62026;39.230;9.122;2023-03-16T02:05:14;13.30;;;2.20;;
67597;SDS011;62026;39.230;9.122;2023-03-16T02:07:50;8.77;;;2.15;;
67597;SDS011;62026;39.230;9.122;2023-03-16T02:10:23;14.33;;;1.80;;
67597;SDS011;62026;39.230;9.122;2023-03-16T02:12:51;12.13;;;1.75;;
67597;SDS011;62026;39.230;9.122;2023-03-16T02:15:19;14.50;;;2.50;;
67597;SDS011;62026;39.230;9.122;2023-03-16T02:17:47;14.45;;;1.83;;
67597;SDS011;62026;39.230;9.122;2023-03-16T02:23:12;16.70;;;2.20;;
67597;SDS011;62026;39.230;9.122;2023-03-16T02:31:21;10.95;;;1.80;;
67597;SDS011;62026;39.230;9.122;2023-03-16T02:33:48;10.45;;;1.80;;
67597;SDS011;62026;39.230;9.122;2023-03-16T02:36:18;9.85;;;1.88;;
67597;SDS011;62026;39.230;9.122;2023-03-16T02:38:46;9.18;;;1.95;;
67597;SDS011;62026;39.230;9.122;2023-03-16T02:41:16;12.68;;;1.88;;
67597;SDS011;62026;39.230;9.122;2023-03-16T02:44:06;12.38;;;1.80;;
67597;SDS011;62026;39.230;9.122;2023-03-16T02:46:59;8.55;;;1.98;;
67597;SDS011;62026;39.230;9.122;2023-03-16T02:49:48;8.65;;;1.80;;
67597;SDS011;62026;39.230;9.122;2023-03-16T02:52:14;13.43;;;1.88;;
67597;SDS011;62026;39.230;9.122;2023-03-16T02:54:40;17.98;;;2.17;;
67597;SDS011;62026;39.230;9.122;2023-03-16T02:57:07;14.20;;;1.92;;
67597;SDS011;62026;39.230;9.122;2023-03-16T02:59:34;7.30;;;1.48;;
67597;SDS011;62026;39.230;9.122;2023-03-16T03:02:01;15.23;;;1.88;;
67597;SDS011;62026;39.230;9.122;2023-03-16T03:04:27;10.07;;;2.33;;
67597;SDS011;62026;39.230;9.122;2023-03-16T03:06:53;9.23;;;1.92;;
67597;SDS011;62026;39.230;9.122;2023-03-16T03:09:19;8.27;;;1.90;;
67597;SDS011;62026;39.230;9.122;2023-03-16T03:11:49;11.82;;;1.80;;
67597;SDS011;62026;39.230;9.122;2023-03-16T03:14:15;14.65;;;1.83;;
67597;SDS011;62026;39.230;9.122;2023-03-16T03:16:43;11.23;;;1.83;;
67597;SDS011;62026;39.230;9.122;2023-03-16T03:19:11;10.23;;;1.60;;
67597;SDS011;62026;39.230;9.122;2023-03-16T03:21:39;17.30;;;2.28;;
67597;SDS011;62026;39.230;9.122;2023-03-16T03:24:06;10.32;;;2.20;;
67597;SDS011;62026;39.230;9.122;2023-03-16T03:26:33;13.05;;;2.70;;
67597;SDS011;62026;39.230;9.122;2023-03-16T03:29:01;11.88;;;1.92;;
67597;SDS011;62026;39.230;9.122;2023-03-16T03:31:27;16.05;;;2.00;;
67597;SDS011;62026;39.230;9.122;2023-03-16T03:33:53;9.20;;;1.85;;
67597;SDS011;62026;39.230;9.122;2023-03-16T03:36:20;11.95;;;2.03;;
67597;SDS011;62026;39.230;9.122;2023-03-16T03:38:47;15.75;;;2.40;;
67597;SDS011;62026;39.230;9.122;2023-03-16T03:41:14;14.68;;;2.03;;
67597;SDS011;62026;39.230;9.122;2023-03-16T03:43:41;10.65;;;1.73;;
67597;SDS011;62026;39.230;9.122;2023-03-16T03:46:13;11.70;;;1.88;;
67597;SDS011;62026;39.230;9.122;2023-03-16T03:48:39;7.03;;;1.75;;
67597;SDS011;62026;39.230;9.122;2023-03-16T03:51:06;10.63;;;2.10;;
67597;SDS011;62026;39.230;9.122;2023-03-16T03:53:43;9.57;;;1.63;;
67597;SDS011;62026;39.230;9.122;2023-03-16T03:56:29;11.90;;;1.70;;
67597;SDS011;62026;39.230;9.122;2023-03-16T03:58:55;11.52;;;1.90;;
67597;SDS011;62026;39.230;9.122;2023-03-16T04:01:41;8.80;;;1.60;;
67597;SDS011;62026;39.230;9.122;2023-03-16T04:04:07;12.80;;;1.88;;
67597;SDS011;62026;39.230;9.122;2023-03-16T04:06:34;8.23;;;1.73;;
67597;SDS011;62026;39.230;9.122;2023-03-16T04:09:00;10.68;;;1.45;;
67597;SDS011;62026;39.230;9.122;2023-03-16T04:11:27;15.75;;;2.72;;
67597;SDS011;62026;39.230;9.122;2023-03-16T04:13:53;17.75;;;2.08;;
67597;SDS011;62026;39.230;9.122;2023-03-16T04:16:19;16.45;;;2.22;;
67597;SDS011;62026;39.230;9.122;2023-03-16T04:18:49;8.38;;;2.17;;
67597;SDS011;62026;39.230;9.122;2023-03-16T04:21:16;9.65;;;1.90;;
67597;SDS011;62026;39.230;9.122;2023-03-16T04:23:45;8.27;;;1.83;;
67597;SDS011;62026;39.230;9.122;2023-03-16T04:26:12;15.20;;;1.75;;
67597;SDS011;62026;39.230;9.122;2023-03-16T04:28:41;12.63;;;1.95;;
67597;SDS011;62026;39.230;9.122;2023-03-16T04:31:10;16.05;;;2.25;;
67597;SDS011;62026;39.230;9.122;2023-03-16T04:33:40;11.85;;;1.98;;
67597;SDS011;62026;39.230;9.122;2023-03-16T04:36:07;10.98;;;1.83;;
67597;SDS011;62026;39.230;9.122;2023-03-16T04:38:36;8.02;;;1.55;;
67597;SDS011;62026;39.230;9.122;2023-03-16T04:41:02;11.63;;;1.90;;
67597;SDS011;62026;39.230;9.122;2023-03-16T04:43:34;8.75;;;1.48;;
67597;SDS011;62026;39.230;9.122;2023-03-16T04:46:08;16.60;;;2.03;;
67597;SDS011;62026;39.230;9.122;2023-03-16T04:48:36;11.52;;;1.95;;
67597;SDS011;62026;39.230;9.122;2023-03-16T04:51:04;9.73;;;1.65;;
67597;SDS011;62026;39.230;9.122;2023-03-16T04:53:33;11.35;;;1.70;;
67597;SDS011;62026;39.230;9.122;2023-03-16T04:56:07;11.05;;;2.03;;
67597;SDS011;62026;39.230;9.122;2023-03-16T04:58:34;10.43;;;1.50;;
67597;SDS011;62026;39.230;9.122;2023-03-16T05:01:02;18.70;;;1.80;;
67597;SDS011;62026;39.230;9.122;2023-03-16T05:03:29;9.18;;;1.60;;
67597;SDS011;62026;39.230;9.122;2023-03-16T05:05:56;5.50;;;1.60;;
67597;SDS011;62026;39.230;9.122;2023-03-16T05:08:26;12.48;;;1.63;;
67597;SDS011;62026;39.230;9.122;2023-03-16T05:10:56;7.38;;;1.50;;
67597;SDS011;62026;39.230;9.122;2023-03-16T05:13:25;8.38;;;1.65;;
67597;SDS011;62026;39.230;9.122;2023-03-16T05:15:54;10.68;;;2.10;;
67597;SDS011;62026;39.230;9.122;2023-03-16T05:18:25;10.88;;;2.17;;
67597;SDS011;62026;39.230;9.122;2023-03-16T05:20:52;8.27;;;1.80;;
67597;SDS011;62026;39.230;9.122;2023-03-16T05:23:21;6.03;;;1.63;;
67597;SDS011;62026;39.230;9.122;2023-03-16T05:25:54;17.05;;;2.30;;
67597;SDS011;62026;39.230;9.122;2023-03-16T05:28:24;13.70;;;2.05;;
67597;SDS011;62026;39.230;9.122;2023-03-16T05:30:59;8.68;;;1.90;;
67597;SDS011;62026;39.230;9.122;2023-03-16T05:33:29;8.55;;;1.90;;
67597;SDS011;62026;39.230;9.122;2023-03-16T05:36:03;7.53;;;1.75;;
67597;SDS011;62026;39.230;9.122;2023-03-16T05:38:31;7.07;;;1.73;;
67597;SDS011;62026;39.230;9.122;2023-03-16T05:40:57;12.20;;;2.20;;
67597;SDS011;62026;39.230;9.122;2023-03-16T05:43:55;14.45;;;2.40;;
67597;SDS011;62026;39.230;9.122;2023-03-16T05:46:25;7.97;;;1.90;;
67597;SDS011;62026;39.230;9.122;2023-03-16T05:48:51;8.75;;;1.90;;
67597;SDS011;62026;39.230;9.122;2023-03-16T05:51:19;9.80;;;1.92;;
67597;SDS011;62026;39.230;9.122;2023-03-16T05:53:46;10.80;;;2.53;;
67597;SDS011;62026;39.230;9.122;2023-03-16T05:56:26;10.68;;;2.33;;
67597;SDS011;62026;39.230;9.122;2023-03-16T05:58:53;15.32;;;2.30;;
67597;SDS011;62026;39.230;9.122;2023-03-16T06:01:21;11.93;;;2.03;;
67597;SDS011;62026;39.230;9.122;2023-03-16T06:03:48;13.02;;;2.13;;
67597;SDS011;62026;39.230;9.122;2023-03-16T06:06:19;9.68;;;2.30;;
67597;SDS011;62026;39.230;9.122;2023-03-16T06:08:53;15.48;;;2.67;;
67597;SDS011;62026;39.230;9.122;2023-03-16T06:11:21;15.20;;;2.28;;
67597;SDS011;62026;39.230;9.122;2023-03-16T06:13:48;11.13;;;1.77;;
67597;SDS011;62026;39.230;9.122;2023-03-16T06:16:15;9.55;;;2.72;;
67597;SDS011;62026;39.230;9.122;2023-03-16T06:18:41;10.52;;;2.17;;
67597;SDS011;62026;39.230;9.122;2023-03-16T06:21:08;9.25;;;2.00;;
67597;SDS011;62026;39.230;9.122;2023-03-16T06:23:34;11.27;;;2.20;;
67597;SDS011;62026;39.230;9.122;2023-03-16T06:26:02;10.13;;;1.90;;
67597;SDS011;62026;39.230;9.122;2023-03-16T06:28:30;7.25;;;2.20;;
67597;SDS011;62026;39.230;9.122;2023-03-16T06:30:56;9.25;;;1.88;;
67597;SDS011;62026;39.230;9.122;2023-03-16T06:33:27;10.90;;;2.33;;
67597;SDS011;62026;39.230;9.122;2023-03-16T06:35:53;10.25;;;2.50;;
67597;SDS011;62026;39.230;9.122;2023-03-16T06:38:28;13.68;;;2.55;;
67597;SDS011;62026;39.230;9.122;2023-03-16T06:40:58;10.52;;;2.42;;
67597;SDS011;62026;39.230;9.122;2023-03-16T06:43:24;11.45;;;1.92;;
67597;SDS011;62026;39.230;9.122;2023-03-16T06:45:51;14.32;;;2.10;;
67597;SDS011;62026;39.230;9.122;2023-03-16T06:48:18;12.77;;;2.35;;
67597;SDS011;62026;39.230;9.122;2023-03-16T06:50:44;10.60;;;2.97;;
67597;SDS011;62026;39.230;9.122;2023-03-16T06:53:12;11.82;;;2.22;;
67597;SDS011;62026;39.230;9.122;2023-03-16T06:55:38;12.98;;;2.50;;
67597;SDS011;62026;39.230;9.122;2023-03-16T06:58:04;15.80;;;2.78;;
67597;SDS011;62026;39.230;9.122;2023-03-16T07:00:30;13.82;;;2.38;;
67597;SDS011;62026;39.230;9.122;2023-03-16T07:02:58;11.23;;;2.40;;
67597;SDS011;62026;39.230;9.122;2023-03-16T07:05:27;14.32;;;2.97;;
67597;SDS011;62026;39.230;9.122;2023-03-16T07:07:54;9.93;;;2.28;;
67597;SDS011;62026;39.230;9.122;2023-03-16T07:10:20;14.90;;;2.90;;
67597;SDS011;62026;39.230;9.122;2023-03-16T07:12:46;16.20;;;3.00;;
67597;SDS011;62026;39.230;9.122;2023-03-16T07:15:12;9.60;;;2.58;;
67597;SDS011;62026;39.230;9.122;2023-03-16T07:17:39;9.75;;;2.28;;
67597;SDS011;62026;39.230;9.122;2023-03-16T07:20:07;9.82;;;2.72;;
67597;SDS011;62026;39.230;9.122;2023-03-16T07:22:37;11.63;;;2.47;;
67597;SDS011;62026;39.230;9.122;2023-03-16T07:25:08;11.40;;;3.38;;
67597;SDS011;62026;39.230;9.122;2023-03-16T07:27:36;9.57;;;2.22;;
67597;SDS011;62026;39.230;9.122;2023-03-16T07:30:05;20.08;;;2.63;;
67597;SDS011;62026;39.230;9.122;2023-03-16T07:32:35;14.65;;;2.20;;
67597;SDS011;62026;39.230;9.122;2023-03-16T07:35:02;14.93;;;2.90;;
67597;SDS011;62026;39.230;9.122;2023-03-16T07:37:30;13.23;;;2.25;;
67597;SDS011;62026;39.230;9.122;2023-03-16T07:39:58;8.65;;;1.73;;
67597;SDS011;62026;39.230;9.122;2023-03-16T07:42:24;10.90;;;1.88;;
67597;SDS011;62026;39.230;9.122;2023-03-16T07:45:08;7.60;;;2.22;;
67597;SDS011;62026;39.230;9.122;2023-03-16T07:47:36;9.52;;;2.50;;
67597;SDS011;62026;39.230;9.122;2023-03-16T07:50:09;13.30;;;2.60;;
67597;SDS011;62026;39.230;9.122;2023-03-16T07:52:41;6.40;;;2.00;;
67597;SDS011;62026;39.230;9.122;2023-03-16T07:55:08;10.23;;;2.45;;
67597;SDS011;62026;39.230;9.122;2023-03-16T07:57:34;12.00;;;2.40;;
67597;SDS011;62026;39.230;9.122;2023-03-16T08:00:00;8.88;;;2.40;;
67597;SDS011;62026;39.230;9.122;2023-03-16T08:02:38;12.57;;;2.50;;
67597;SDS011;62026;39.230;9.122;2023-03-16T08:05:07;19.77;;;3.00;;
67597;SDS011;62026;39.230;9.122;2023-03-16T08:07:40;17.20;;;2.60;;
67597;SDS011;62026;39.230;9.122;2023-03-16T08:10:11;14.57;;;2.55;;
67597;SDS011;62026;39.230;9.122;2023-03-16T08:12:50;10.38;;;3.20;;
67597;SDS011;62026;39.230;9.122;2023-03-16T08:15:16;12.00;;;2.75;;
67597;SDS011;62026;39.230;9.122;2023-03-16T08:17:44;12.30;;;3.03;;
67597;SDS011;62026;39.230;9.122;2023-03-16T08:20:16;13.38;;;3.40;;
67597;SDS011;62026;39.230;9.122;2023-03-16T08:22:44;10.00;;;2.63;;
67597;SDS011;62026;39.230;9.122;2023-03-16T08:25:12;13.50;;;2.58;;
67597;SDS011;62026;39.230;9.122;2023-03-16T08:27:52;15.85;;;2.67;;
67597;SDS011;62026;39.230;9.122;2023-03-16T08:30:18;18.85;;;3.10;;
67597;SDS011;62026;39.230;9.122;2023-03-16T08:32:52;13.93;;;3.33;;
67597;SDS011;62026;39.230;9.122;2023-03-16T08:35:18;15.73;;;2.58;;
67597;SDS011;62026;39.230;9.122;2023-03-16T08:37:46;15.50;;;2.58;;
67597;SDS011;62026;39.230;9.122;2023-03-16T08:40:12;10.85;;;2.90;;
67597;SDS011;62026;39.230;9.122;2023-03-16T08:42:41;16.25;;;3.03;;
67597;SDS011;62026;39.230;9.122;2023-03-16T08:45:10;19.55;;;3.20;;
67597;SDS011;62026;39.230;9.122;2023-03-16T08:47:38;17.25;;;3.53;;
67597;SDS011;62026;39.230;9.122;2023-03-16T08:50:09;10.00;;;2.83;;
67597;SDS011;62026;39.230;9.122;2023-03-16T08:52:37;18.65;;;3.35;;
67597;SDS011;62026;39.230;9.122;2023-03-16T08:55:06;13.02;;;2.75;;
67597;SDS011;62026;39.230;9.122;2023-03-16T08:57:35;16.95;;;3.20;;
67597;SDS011;62026;39.230;9.122;2023-03-16T09:00:03;16.48;;;3.40;;
67597;SDS011;62026;39.230;9.122;2023-03-16T09:02:37;12.98;;;3.55;;
67597;SDS011;62026;39.230;9.122;2023-03-16T09:05:06;13.88;;;3.58;;
67597;SDS011;62026;39.230;9.122;2023-03-16T09:07:37;16.83;;;3.10;;
67597;SDS011;62026;39.230;9.122;2023-03-16T09:10:05;11.25;;;2.88;;
67597;SDS011;62026;39.230;9.122;2023-03-16T09:12:35;18.05;;;3.30;;
67597;SDS011;62026;39.230;9.122;2023-03-16T09:15:02;20.25;;;3.47;;
67597;SDS011;62026;39.230;9.122;2023-03-16T09:17:29;13.60;;;3.55;;
67597;SDS011;62026;39.230;9.122;2023-03-16T09:19:55;13.40;;;3.22;;
67597;SDS011;62026;39.230;9.122;2023-03-16T09:22:21;15.50;;;3.35;;
67597;SDS011;62026;39.230;9.122;2023-03-16T09:24:48;15.05;;;3.05;;
67597;SDS011;62026;39.230;9.122;2023-03-16T09:27:15;13.75;;;3.30;;
67597;SDS011;62026;39.230;9.122;2023-03-16T09:29:50;11.48;;;3.10;;
67597;SDS011;62026;39.230;9.122;2023-03-16T09:32:20;9.45;;;2.50;;
67597;SDS011;62026;39.230;9.122;2023-03-16T09:34:47;15.15;;;3.13;;
67597;SDS011;62026;39.230;9.122;2023-03-16T09:37:19;15.18;;;3.28;;
67597;SDS011;62026;39.230;9.122;2023-03-16T09:39:49;15.55;;;2.80;;
67597;SDS011;62026;39.230;9.122;2023-03-16T09:48:10;10.95;;;2.30;;
67597;SDS011;62026;39.230;9.122;2023-03-16T09:50:42;10.70;;;2.50;;
67597;SDS011;62026;39.230;9.122;2023-03-16T09:53:26;11.82;;;2.80;;
67597;SDS011;62026;39.230;9.122;2023-03-16T09:58:27;14.85;;;2.78;;
67597;SDS011;62026;39.230;9.122;2023-03-16T10:03:39;8.50;;;2.10;;
67597;SDS011;62026;39.230;9.122;2023-03-16T10:09:57;10.20;;;2.03;;
67597;SDS011;62026;39.230;9.122;2023-03-16T10:12:45;6.20;;;1.83;;
67597;SDS011;62026;39.230;9.122;2023-03-16T10:15:21;6.50;;;1.70;;
67597;SDS011;62026;39.230;9.122;2023-03-16T10:20:45;9.88;;;2.15;;
67597;SDS011;62026;39.230;9.122;2023-03-16T10:23:16;9.05;;;2.40;;
67597;SDS011;62026;39.230;9.122;2023-03-16T10:25:49;10.65;;;2.05;;
67597;SDS011;62026;39.230;9.122;2023-03-16T10:28:23;10.20;;;2.30;;
67597;SDS011;62026;39.230;9.122;2023-03-16T10:30:54;11.07;;;2.38;;
67597;SDS011;62026;39.230;9.122;2023-03-16T10:33:25;9.68;;;2.65;;
67597;SDS011;62026;39.230;9.122;2023-03-16T10:38:41;6.70;;;1.83;;
67597;SDS011;62026;39.230;9.122;2023-03-16T10:41:18;5.55;;;1.83;;
67597;SDS011;62026;39.230;9.122;2023-03-16T10:43:46;6.03;;;1.40;;
67597;SDS011;62026;39.230;9.122;2023-03-16T10:46:38;7.93;;;1.40;;
67597;SDS011;62026;39.230;9.122;2023-03-16T10:49:25;8.98;;;1.75;;
67597;SDS011;62026;39.230;9.122;2023-03-16T10:52:03;7.53;;;1.77;;
67597;SDS011;62026;39.230;9.122;2023-03-16T10:55:08;10.13;;;1.92;;
67597;SDS011;62026;39.230;9.122;2023-03-16T10:57:54;7.60;;;1.80;;
67597;SDS011;62026;39.230;9.122;2023-03-16T11:00:28;8.15;;;2.17;;
67597;SDS011;62026;39.230;9.122;2023-03-16T11:03:00;9.80;;;2.53;;
67597;SDS011;62026;39.230;9.122;2023-03-16T11:05:44;8.40;;;1.67;;
67597;SDS011;62026;39.230;9.122;2023-03-16T11:08:15;6.00;;;1.20;;
67597;SDS011;62026;39.230;9.122;2023-03-16T11:10:56;5.82;;;1.77;;
67597;SDS011;62026;39.230;9.122;2023-03-16T11:13:32;5.45;;;1.20;;
67597;SDS011;62026;39.230;9.122;2023-03-16T11:16:05;6.28;;;1.30;;
67597;SDS011;62026;39.230;9.122;2023-03-16T11:19:02;5.85;;;1.40;;
67597;SDS011;62026;39.230;9.122;2023-03-16T11:32:37;3.80;;;1.00;;
67597;SDS011;62026;39.230;9.122;2023-03-16T11:35:12;3.50;;;0.73;;
67597;SDS011;62026;39.230;9.122;2023-03-16T11:40:54;7.38;;;1.10;;
67597;SDS011;62026;39.230;9.122;2023-03-16T11:46:21;37.70;;;3.88;;
67597;SDS011;62026;39.230;9.122;2023-03-16T11:49:00;69.47;;;4.40;;
67597;SDS011;62026;39.230;9.122;2023-03-16T11:54:35;6.55;;;1.15;;
67597;SDS011;62026;39.230;9.122;2023-03-16T11:57:13;5.38;;;1.10;;
67597;SDS011;62026;39.230;9.122;2023-03-16T12:05:54;7.43;;;1.13;;
67597;SDS011;62026;39.230;9.122;2023-03-16T12:09:03;2.25;;;0.80;;
67597;SDS011;62026;39.230;9.122;2023-03-16T12:14:32;4.22;;;0.88;;
67597;SDS011;62026;39.230;9.122;2023-03-16T12:17:15;2.65;;;0.82;;
67597;SDS011;62026;39.230;9.122;2023-03-16T12:19:50;2.05;;;0.73;;
67597;SDS011;62026;39.230;9.122;2023-03-16T12:22:38;1.80;;;0.80;;
67597;SDS011;62026;39.230;9.122;2023-03-16T12:25:22;3.78;;;0.98;;
67597;SDS011;62026;39.230;9.122;2023-03-16T12:27:56;4.88;;;0.80;;
67597;SDS011;62026;39.230;9.122;2023-03-16T12:33:30;3.42;;;0.90;;
67597;SDS011;62026;39.230;9.122;2023-03-16T12:45:03;5.87;;;0.90;;
67597;SDS011;62026;39.230;9.122;2023-03-16T12:50:22;4.28;;;0.95;;
67597;SDS011;62026;39.230;9.122;2023-03-16T12:52:49;4.55;;;0.95;;
67597;SDS011;62026;39.230;9.122;2023-03-16T12:55:18;4.60;;;0.63;;
67597;SDS011;62026;39.230;9.122;2023-03-16T12:58:08;3.60;;;0.70;;
67597;SDS011;62026;39.230;9.122;2023-03-16T13:00:39;7.25;;;0.75;;
67597;SDS011;62026;39.230;9.122;2023-03-16T13:03:13;2.97;;;0.88;;
67597;SDS011;62026;39.230;9.122;2023-03-16T13:05:47;3.78;;;0.88;;
67597;SDS011;62026;39.230;9.122;2023-03-16T13:08:19;4.70;;;0.75;;
67597;SDS011;62026;39.230;9.122;2023-03-16T13:11:03;5.38;;;0.90;;
67597;SDS011;62026;39.230;9.122;2023-03-16T13:13:49;1.92;;;0.63;;
67597;SDS011;62026;39.230;9.122;2023-03-16T13:16:38;4.40;;;0.73;;
67597;SDS011;62026;39.230;9.122;2023-03-16T13:19:24;3.80;;;0.90;;
67597;SDS011;62026;39.230;9.122;2023-03-16T13:22:00;3.45;;;1.10;;
67597;SDS011;62026;39.230;9.122;2023-03-16T13:24:48;7.40;;;1.50;;
67597;SDS011;62026;39.230;9.122;2023-03-16T13:27:41;5.25;;;1.23;;
67597;SDS011;62026;39.230;9.122;2023-03-16T13:32:53;5.65;;;1.10;;
67597;SDS011;62026;39.230;9.122;2023-03-16T13:35:26;3.80;;;1.30;;
67597;SDS011;62026;39.230;9.122;2023-03-16T13:38:01;5.05;;;1.00;;
67597;SDS011;62026;39.230;9.122;2023-03-16T13:40:32;5.32;;;1.20;;
67597;SDS011;62026;39.230;9.122;2023-03-16T13:43:00;6.82;;;1.08;;
67597;SDS011;62026;39.230;9.122;2023-03-16T13:45:27;6.72;;;1.58;;
67597;SDS011;62026;39.230;9.122;2023-03-16T13:47:59;3.38;;;0.82;;
67597;SDS011;62026;39.230;9.122;2023-03-16T13:50:32;4.50;;;1.10;;
67597;SDS011;62026;39.230;9.122;2023-03-16T13:53:03;8.75;;;1.00;;
67597;SDS011;62026;39.230;9.122;2023-03-16T13:55:48;9.85;;;1.25;;
67597;SDS011;62026;39.230;9.122;2023-03-16T14:00:54;4.85;;;1.00;;
67597;SDS011;62026;39.230;9.122;2023-03-16T14:03:22;2.90;;;1.00;;
67597;SDS011;62026;39.230;9.122;2023-03-16T14:06:02;6.93;;;1.23;;
67597;SDS011;62026;39.230;9.122;2023-03-16T14:08:31;10.35;;;1.13;;
67597;SDS011;62026;39.230;9.122;2023-03-16T14:10:58;1.80;;;0.70;;
67597;SDS011;62026;39.230;9.122;2023-03-16T14:16:00;6.00;;;1.10;;
67597;SDS011;62026;39.230;9.122;2023-03-16T14:18:43;4.70;;;0.88;;
67597;SDS011;62026;39.230;9.122;2023-03-16T14:21:29;8.75;;;1.60;;
67597;SDS011;62026;39.230;9.122;2023-03-16T14:24:25;3.85;;;0.90;;
67597;SDS011;62026;39.230;9.122;2023-03-16T14:32:40;5.45;;;0.93;;
67597;SDS011;62026;39.230;9.122;2023-03-16T14:35:19;6.00;;;0.90;;
67597;SDS011;62026;39.230;9.122;2023-03-16T14:37:46;6.68;;;0.80;;
67597;SDS011;62026;39.230;9.122;2023-03-16T14:40:29;4.90;;;1.00;;
67597;SDS011;62026;39.230;9.122;2023-03-16T14:43:00;2.88;;;0.68;;
67597;SDS011;62026;39.230;9.122;2023-03-16T14:45:32;4.28;;;0.75;;
67597;SDS011;62026;39.230;9.122;2023-03-16T14:48:09;3.20;;;1.08;;
67597;SDS011;62026;39.230;9.122;2023-03-16T14:50:45;4.78;;;0.80;;
67597;SDS011;62026;39.230;9.122;2023-03-16T14:53:19;4.72;;;1.02;;
67597;SDS011;62026;39.230;9.122;2023-03-16T14:55:46;5.22;;;0.85;;
67597;SDS011;62026;39.230;9.122;2023-03-16T14:58:12;6.72;;;0.60;;
67597;SDS011;62026;39.230;9.122;2023-03-16T15:00:38;2.88;;;0.70;;
67597;SDS011;62026;39.230;9.122;2023-03-16T15:03:09;3.92;;;0.80;;
67597;SDS011;62026;39.230;9.122;2023-03-16T15:05:40;1.80;;;0.65;;
67597;SDS011;62026;39.230;9.122;2023-03-16T15:08:12;3.15;;;0.77;;
67597;SDS011;62026;39.230;9.122;2023-03-16T15:10:47;2.55;;;0.68;;
67597;SDS011;62026;39.230;9.122;2023-03-16T15:13:18;5.78;;;0.70;;
67597;SDS011;62026;39.230;9.122;2023-03-16T15:16:01;2.35;;;0.63;;
67597;SDS011;62026;39.230;9.122;2023-03-16T15:18:30;4.97;;;0.60;;
67597;SDS011;62026;39.230;9.122;2023-03-16T15:20:58;3.70;;;0.60;;
67597;SDS011;62026;39.230;9.122;2023-03-16T15:23:26;3.47;;;0.50;;
67597;SDS011;62026;39.230;9.122;2023-03-16T15:25:54;8.30;;;0.73;;
67597;SDS011;62026;39.230;9.122;2023-03-16T15:28:27;3.03;;;0.57;;
67597;SDS011;62026;39.230;9.122;2023-03-16T15:30:54;3.13;;;0.70;;
67597;SDS011;62026;39.230;9.122;2023-03-16T15:33:27;5.32;;;0.80;;
67597;SDS011;62026;39.230;9.122;2023-03-16T15:35:54;4.78;;;0.60;;
67597;SDS011;62026;39.230;9.122;2023-03-16T15:41:00;5.68;;;0.90;;
67597;SDS011;62026;39.230;9.122;2023-03-16T15:43:27;4.60;;;0.60;;
67597;SDS011;62026;39.230;9.122;2023-03-16T15:45:56;5.90;;;0.73;;
67597;SDS011;62026;39.230;9.122;2023-03-16T15:48:24;1.20;;;0.50;;
67597;SDS011;62026;39.230;9.122;2023-03-16T15:51:35;2.40;;;0.70;;
67597;SDS011;62026;39.230;9.122;2023-03-16T15:53:50;2.53;;;0.73;;
67597;SDS011;62026;39.230;9.122;2023-03-16T15:56:23;8.40;;;0.73;;
67597;SDS011;62026;39.230;9.122;2023-03-16T15:59:04;4.73;;;0.80;;
67597;SDS011;62026;39.230;9.122;2023-03-16T16:01:36;6.00;;;0.93;;
67597;SDS011;62026;39.230;9.122;2023-03-16T16:04:12;5.88;;;1.38;;
67597;SDS011;62026;39.230;9.122;2023-03-16T16:06:47;5.32;;;0.70;;
67597;SDS011;62026;39.230;9.122;2023-03-16T16:09:15;3.92;;;0.60;;
67597;SDS011;62026;39.230;9.122;2023-03-16T16:11:41;5.85;;;0.60;;
67597;SDS011;62026;39.230;9.122;2023-03-16T16:14:12;6.03;;;0.90;;
67597;SDS011;62026;39.230;9.122;2023-03-16T16:16:42;6.32;;;1.33;;
67597;SDS011;62026;39.230;9.122;2023-03-16T16:19:13;6.05;;;0.75;;
67597;SDS011;62026;39.230;9.122;2023-03-16T16:21:41;4.93;;;0.73;;
67597;SDS011;62026;39.230;9.122;2023-03-16T16:24:08;3.75;;;0.90;;
67597;SDS011;62026;39.230;9.122;2023-03-16T16:26:42;3.90;;;0.60;;
67597;SDS011;62026;39.230;9.122;2023-03-16T16:29:16;4.47;;;0.88;;
67597;SDS011;62026;39.230;9.122;2023-03-16T16:31:47;4.05;;;0.70;;
67597;SDS011;62026;39.230;9.122;2023-03-16T16:34:16;5.10;;;0.80;;
67597;SDS011;62026;39.230;9.122;2023-03-16T16:36:45;4.05;;;0.68;;
67597;SDS011;62026;39.230;9.122;2023-03-16T16:39:12;4.68;;;0.50;;